sensor_id;sensor_type;location;lat;lon;timestamp;pressure;altitude;pressure_sealevel;temperature;humidity
30897;BME280;64229;52.246;21.054;2023-09-07T00:01:01;101506.06;;;17.61;99.62
30897;BME280;64229;52.246;21.054;2023-09-07T00:03:28;101510.97;;;17.59;100.00
30897;BME280;64229;52.246;21.054;2023-09-07T00:05:54;101510.44;;;17.57;100.00
30897;BME280;64229;52.246;21.054;2023-09-07T00:08:19;101514.50;;;17.55;100.00
30897;BME280;64229;52.246;21.054;2023-09-07T00:10:44;101508.56;;;17.53;100.00
30897;BME280;64229;52.246;21.054;2023-09-07T00:13:10;101512.63;;;17.50;100.00
30897;BME280;64229;52.246;21.054;2023-09-07T00:15:37;101516.44;;;17.49;100.00
30897;BME280;64229;52.246;21.054;2023-09-07T00:18:02;101511.31;;;17.48;100.00
30897;BME280;64229;52.246;21.054;2023-09-07T00:20:28;101505.69;;;17.44;100.00
30897;BME280;64229;52.246;21.054;2023-09-07T00:22:53;101507.53;;;17.44;100.00
30897;BME280;64229;52.246;21.054;2023-09-07T00:25:18;101514.59;;;17.45;100.00
30897;BME280;64229;52.246;21.054;2023-09-07T00:27:45;101510.53;;;17.42;100.00
30897;BME280;64229;52.246;21.054;2023-09-07T00:30:10;101514.59;;;17.40;100.00
30897;BME280;64229;52.246;21.054;2023-09-07T00:32:37;101519.72;;;17.41;100.00
30897;BME280;64229;52.246;21.054;2023-09-07T00:35:03;101518.38;;;17.39;100.00
30897;BME280;64229;52.246;21.054;2023-09-07T00:37:29;101518.69;;;17.37;100.00
30897;BME280;64229;52.246;21.054;2023-09-07T00:39:54;101515.97;;;17.37;100.00
30897;BME280;64229;52.246;21.054;2023-09-07T00:42:19;101511.16;;;17.34;100.00
30897;BME280;64229;52.246;21.054;2023-09-07T00:44:44;101514.66;;;17.34;100.00
30897;BME280;64229;52.246;21.054;2023-09-07T00:47:10;101509.28;;;17.29;100.00
30897;BME280;64229;52.246;21.054;2023-09-07T00:49:36;101508.50;;;17.24;100.00
30897;BME280;64229;52.246;21.054;2023-09-07T00:52:02;101509.09;;;17.16;100.00
30897;BME280;64229;52.246;21.054;2023-09-07T00:54:28;101509.16;;;17.05;100.00
30897;BME280;64229;52.246;21.054;2023-09-07T00:56:54;101514.84;;;16.99;100.00
30897;BME280;64229;52.246;21.054;2023-09-07T00:59:20;101512.19;;;16.94;100.00
30897;BME280;64229;52.246;21.054;2023-09-07T01:01:45;101513.78;;;16.95;100.00
30897;BME280;64229;52.246;21.054;2023-09-07T01:04:10;101515.69;;;16.94;100.00
30897;BME280;64229;52.246;21.054;2023-09-07T01:06:39;101505.41;;;16.96;100.00
30897;BME280;64229;52.246;21.054;2023-09-07T01:09:18;101511.34;;;16.98;100.00
30897;BME280;64229;52.246;21.054;2023-09-07T01:11:44;101502.47;;;16.93;100.00
30897;BME280;64229;52.246;21.054;2023-09-07T01:14:09;101512.94;;;16.99;100.00
30897;BME280;64229;52.246;21.054;2023-09-07T01:16:35;101511.06;;;17.00;100.00
30897;BME280;64229;52.246;21.054;2023-09-07T01:19:05;101510.81;;;17.01;100.00
30897;BME280;64229;52.246;21.054;2023-09-07T01:21:38;101512.38;;;17.08;100.00
30897;BME280;64229;52.246;21.054;2023-09-07T01:24:08;101515.63;;;17.04;100.00
30897;BME280;64229;52.246;21.054;2023-09-07T01:26:37;101513.50;;;17.01;100.00
30897;BME280;64229;52.246;21.054;2023-09-07T01:29:06;101481.53;;;16.74;100.00
30897;BME280;64229;52.246;21.054;2023-09-07T01:31:35;101518.66;;;16.93;100.00
30897;BME280;64229;52.246;21.054;2023-09-07T01:34:00;101522.97;;;16.89;100.00
30897;BME280;64229;52.246;21.054;2023-09-07T01:36:26;101513.03;;;16.84;100.00
30897;BME280;64229;52.246;21.054;2023-09-07T01:38:51;101523.53;;;16.91;100.00
30897;BME280;64229;52.246;21.054;2023-09-07T01:41:16;101532.16;;;16.93;100.00
30897;BME280;64229;52.246;21.054;2023-09-07T01:43:41;101513.00;;;16.89;100.00
30897;BME280;64229;52.246;21.054;2023-09-07T01:46:07;101514.94;;;16.84;100.00
30897;BME280;64229;52.246;21.054;2023-09-07T01:48:32;101534.38;;;16.81;100.00
30897;BME280;64229;52.246;21.054;2023-09-07T01:50:57;101526.53;;;16.79;100.00
30897;BME280;64229;52.246;21.054;2023-09-07T01:53:23;101526.56;;;16.74;100.00
30897;BME280;64229;52.246;21.054;2023-09-07T01:55:48;101526.81;;;16.67;100.00
30897;BME280;64229;52.246;21.054;2023-09-07T01:58:13;101506.13;;;16.53;100.00
30897;BME280;64229;52.246;21.054;2023-09-07T02:00:39;101520.66;;;16.62;100.00
30897;BME280;64229;52.246;21.054;2023-09-07T02:03:05;101530.09;;;16.59;100.00
30897;BME280;64229;52.246;21.054;2023-09-07T02:05:30;101523.06;;;16.58;100.00
30897;BME280;64229;52.246;21.054;2023-09-07T02:07:57;101511.78;;;16.51;100.00
30897;BME280;64229;52.246;21.054;2023-09-07T02:10:23;101513.16;;;16.48;100.00
30897;BME280;64229;52.246;21.054;2023-09-07T02:12:48;101520.94;;;16.55;100.00
30897;BME280;64229;52.246;21.054;2023-09-07T02:15:14;101522.81;;;16.55;100.00
30897;BME280;64229;52.246;21.054;2023-09-07T02:17:39;101516.63;;;16.54;100.00
30897;BME280;64229;52.246;21.054;2023-09-07T02:20:04;101517.69;;;16.53;100.00
30897;BME280;64229;52.246;21.054;2023-09-07T02:22:35;101523.38;;;16.52;100.00
30897;BME280;64229;52.246;21.054;2023-09-07T02:25:00;101520.16;;;16.49;100.00
30897;BME280;64229;52.246;21.054;2023-09-07T02:27:26;101513.16;;;16.48;100.00
30897;BME280;64229;52.246;21.054;2023-09-07T02:29:51;101522.28;;;16.47;100.00
30897;BME280;64229;52.246;21.054;2023-09-07T02:32:16;101519.88;;;16.46;100.00
30897;BME280;64229;52.246;21.054;2023-09-07T02:34:41;101526.06;;;16.46;100.00
30897;BME280;64229;52.246;21.054;2023-09-07T02:37:08;101517.72;;;16.43;100.00
30897;BME280;64229;52.246;21.054;2023-09-07T02:39:33;101526.34;;;16.45;100.00
30897;BME280;64229;52.246;21.054;2023-09-07T02:41:59;101518.28;;;16.40;100.00
30897;BME280;64229;52.246;21.054;2023-09-07T02:44:24;101538.47;;;16.42;100.00
30897;BME280;64229;52.246;21.054;2023-09-07T02:46:49;101522.88;;;16.39;100.00
30897;BME280;64229;52.246;21.054;2023-09-07T02:49:14;101532.03;;;16.38;100.00
30897;BME280;64229;52.246;21.054;2023-09-07T02:51:40;101531.22;;;16.38;100.00
30897;BME280;64229;52.246;21.054;2023-09-07T02:54:05;101533.09;;;16.37;100.00
30897;BME280;64229;52.246;21.054;2023-09-07T02:56:31;101536.63;;;16.38;100.00
30897;BME280;64229;52.246;21.054;2023-09-07T02:58:56;101523.97;;;16.28;100.00
30897;BME280;64229;52.246;21.054;2023-09-07T03:01:22;101534.72;;;16.38;100.00
30897;BME280;64229;52.246;21.054;2023-09-07T03:03:47;101528.78;;;16.36;100.00
30897;BME280;64229;52.246;21.054;2023-09-07T03:06:14;101535.53;;;16.34;100.00
30897;BME280;64229;52.246;21.054;2023-09-07T03:08:41;101539.59;;;16.31;100.00
30897;BME280;64229;52.246;21.054;2023-09-07T03:11:08;101544.44;;;16.29;100.00
30897;BME280;64229;52.246;21.054;2023-09-07T03:13:33;101543.06;;;16.27;100.00
30897;BME280;64229;52.246;21.054;2023-09-07T03:16:00;101549.31;;;16.27;100.00
30897;BME280;64229;52.246;21.054;2023-09-07T03:18:25;101551.44;;;16.25;100.00
30897;BME280;64229;52.246;21.054;2023-09-07T03:20:54;101552.53;;;16.24;100.00
30897;BME280;64229;52.246;21.054;2023-09-07T03:23:19;101546.63;;;16.17;100.00
30897;BME280;64229;52.246;21.054;2023-09-07T03:25:45;101554.69;;;16.22;100.00
30897;BME280;64229;52.246;21.054;2023-09-07T03:28:10;101548.50;;;16.22;100.00
30897;BME280;64229;52.246;21.054;2023-09-07T03:30:35;101549.03;;;16.18;100.00
30897;BME280;64229;52.246;21.054;2023-09-07T03:33:01;101548.22;;;16.18;100.00
30897;BME280;64229;52.246;21.054;2023-09-07T03:35:28;101550.94;;;16.18;100.00
30897;BME280;64229;52.246;21.054;2023-09-07T03:37:53;101549.56;;;16.15;100.00
30897;BME280;64229;52.246;21.054;2023-09-07T03:40:18;101554.13;;;16.15;100.00
30897;BME280;64229;52.246;21.054;2023-09-07T03:42:44;101554.41;;;16.13;100.00
30897;BME280;64229;52.246;21.054;2023-09-07T03:45:11;101562.50;;;16.13;100.00
30897;BME280;64229;52.246;21.054;2023-09-07T03:47:36;101551.75;;;16.08;100.00
30897;BME280;64229;52.246;21.054;2023-09-07T03:50:02;101557.66;;;16.10;100.00
30897;BME280;64229;52.246;21.054;2023-09-07T03:52:28;101553.63;;;16.08;100.00
30897;BME280;64229;52.246;21.054;2023-09-07T03:54:54;101562.50;;;16.08;100.00
30897;BME280;64229;52.246;21.054;2023-09-07T03:57:20;101565.22;;;16.08;100.00
30897;BME280;64229;52.246;21.054;2023-09-07T03:59:47;101559.28;;;16.06;100.00
30897;BME280;64229;52.246;21.054;2023-09-07T04:02:13;101557.66;;;16.05;100.00
30897;BME280;64229;52.246;21.054;2023-09-07T04:04:38;101556.31;;;16.03;100.00
30897;BME280;64229;52.246;21.054;2023-09-07T04:07:04;101553.09;;;16.06;100.00
30897;BME280;64229;52.246;21.054;2023-09-07T04:09:29;101559.00;;;16.03;100.00
30897;BME280;64229;52.246;21.054;2023-09-07T04:11:54;101555.25;;;15.99;100.00
30897;BME280;64229;52.246;21.054;2023-09-07T04:14:19;101563.31;;;15.99;100.00
30897;BME280;64229;52.246;21.054;2023-09-07T04:16:45;101562.00;;;15.96;100.00
30897;BME280;64229;52.246;21.054;2023-09-07T04:19:10;101559.53;;;15.95;100.00
30897;BME280;64229;52.246;21.054;2023-09-07T04:21:36;101556.84;;;15.89;100.00
30897;BME280;64229;52.246;21.054;2023-09-07T04:24:01;101564.38;;;15.93;100.00
30897;BME280;64229;52.246;21.054;2023-09-07T04:26:27;101553.09;;;15.85;100.00
30897;BME280;64229;52.246;21.054;2023-09-07T04:28:52;101564.66;;;15.91;100.00
30897;BME280;64229;52.246;21.054;2023-09-07T04:31:17;101557.38;;;15.91;100.00
30897;BME280;64229;52.246;21.054;2023-09-07T04:33:43;101561.69;;;15.93;100.00
30897;BME280;64229;52.246;21.054;2023-09-07T04:36:10;101559.28;;;15.91;100.00
30897;BME280;64229;52.246;21.054;2023-09-07T04:38:36;101566.28;;;15.92;100.00
30897;BME280;64229;52.246;21.054;2023-09-07T04:41:08;101568.44;;;15.90;100.00
30897;BME280;64229;52.246;21.054;2023-09-07T04:43:33;101568.72;;;15.88;100.00
30897;BME280;64229;52.246;21.054;2023-09-07T04:45:59;101565.47;;;15.86;100.00
30897;BME280;64229;52.246;21.054;2023-09-07T04:48:24;101567.91;;;15.88;100.00
30897;BME280;64229;52.246;21.054;2023-09-07T04:50:57;101576.25;;;15.91;100.00
30897;BME280;64229;52.246;21.054;2023-09-07T04:53:23;101570.59;;;15.88;100.00
30897;BME280;64229;52.246;21.054;2023-09-07T04:55:48;101576.25;;;15.91;100.00
30897;BME280;64229;52.246;21.054;2023-09-07T04:58:13;101585.13;;;15.92;100.00
30897;BME280;64229;52.246;21.054;2023-09-07T05:00:38;101583.50;;;15.91;100.00
30897;BME280;64229;52.246;21.054;2023-09-07T05:03:04;101587.56;;;15.88;100.00
30897;BME280;64229;52.246;21.054;2023-09-07T05:05:29;101597.50;;;15.88;100.00
30897;BME280;64229;52.246;21.054;2023-09-07T05:07:54;101595.91;;;15.87;100.00
30897;BME280;64229;52.246;21.054;2023-09-07T05:10:19;101599.41;;;15.87;100.00
30897;BME280;64229;52.246;21.054;2023-09-07T05:12:45;101602.63;;;15.89;100.00
30897;BME280;64229;52.246;21.054;2023-09-07T05:15:10;101594.56;;;15.89;100.00
30897;BME280;64229;52.246;21.054;2023-09-07T05:17:35;101611.78;;;15.88;100.00
30897;BME280;64229;52.246;21.054;2023-09-07T05:20:01;101604.50;;;15.89;100.00
30897;BME280;64229;52.246;21.054;2023-09-07T05:22:26;101602.91;;;15.88;100.00
30897;BME280;64229;52.246;21.054;2023-09-07T05:24:51;101609.38;;;15.87;100.00
30897;BME280;64229;52.246;21.054;2023-09-07T05:27:16;101611.53;;;15.85;100.00
30897;BME280;64229;52.246;21.054;2023-09-07T05:29:42;101610.44;;;15.91;100.00
30897;BME280;64229;52.246;21.054;2023-09-07T05:32:09;101618.50;;;15.91;100.00
30897;BME280;64229;52.246;21.054;2023-09-07T05:34:35;101615.53;;;15.93;100.00
30897;BME280;64229;52.246;21.054;2023-09-07T05:37:00;101615.03;;;15.96;100.00
30897;BME280;64229;52.246;21.054;2023-09-07T05:39:25;101614.22;;;16.00;100.00
30897;BME280;64229;52.246;21.054;2023-09-07T05:41:50;101609.63;;;16.01;100.00
30897;BME280;64229;52.246;21.054;2023-09-07T05:44:15;101622.03;;;16.07;100.00
30897;BME280;64229;52.246;21.054;2023-09-07T05:46:41;101617.19;;;16.09;100.00
30897;BME280;64229;52.246;21.054;2023-09-07T05:49:06;101616.38;;;16.13;100.00
30897;BME280;64229;52.246;21.054;2023-09-07T05:51:31;101616.66;;;16.17;100.00
30897;BME280;64229;52.246;21.054;2023-09-07T05:53:57;101628.50;;;16.21;100.00
30897;BME280;64229;52.246;21.054;2023-09-07T05:56:23;101633.59;;;16.23;100.00
30897;BME280;64229;52.246;21.054;2023-09-07T05:58:48;101626.88;;;16.25;99.46
30897;BME280;64229;52.246;21.054;2023-09-07T06:01:13;101631.72;;;16.28;99.19
30897;BME280;64229;52.246;21.054;2023-09-07T06:03:38;101634.16;;;16.30;98.93
30897;BME280;64229;52.246;21.054;2023-09-07T06:06:04;101628.22;;;16.28;99.01
30897;BME280;64229;52.246;21.054;2023-09-07T06:08:30;101633.34;;;16.34;98.77
30897;BME280;64229;52.246;21.054;2023-09-07T06:10:55;101634.66;;;16.37;98.06
30897;BME280;64229;52.246;21.054;2023-09-07T06:13:20;101640.06;;;16.37;98.14
30897;BME280;64229;52.246;21.054;2023-09-07T06:15:45;101640.63;;;16.39;98.04
30897;BME280;64229;52.246;21.054;2023-09-07T06:18:11;101634.69;;;16.42;97.89
30897;BME280;64229;52.246;21.054;2023-09-07T06:20:36;101623.09;;;16.31;98.10
30897;BME280;64229;52.246;21.054;2023-09-07T06:23:01;101638.72;;;16.49;97.81
30897;BME280;64229;52.246;21.054;2023-09-07T06:25:27;101632.25;;;16.51;97.56
30897;BME280;64229;52.246;21.054;2023-09-07T06:27:52;101647.59;;;16.60;97.17
30897;BME280;64229;52.246;21.054;2023-09-07T06:30:18;101643.28;;;16.64;96.95
30897;BME280;64229;52.246;21.054;2023-09-07T06:32:43;101630.63;;;16.60;96.44
30897;BME280;64229;52.246;21.054;2023-09-07T06:35:09;101641.69;;;16.73;96.26
30897;BME280;64229;52.246;21.054;2023-09-07T06:37:35;101644.91;;;16.81;95.62
30897;BME280;64229;52.246;21.054;2023-09-07T06:40:02;101648.38;;;16.86;95.53
30897;BME280;64229;52.246;21.054;2023-09-07T06:42:28;101641.91;;;16.92;95.48
30897;BME280;64229;52.246;21.054;2023-09-07T06:44:56;101641.31;;;17.00;95.31
30897;BME280;64229;52.246;21.054;2023-09-07T06:47:21;101623.28;;;16.96;94.78
30897;BME280;64229;52.246;21.054;2023-09-07T06:49:46;101635.88;;;17.16;94.55
30897;BME280;64229;52.246;21.054;2023-09-07T06:52:11;101645.56;;;17.27;94.13
30897;BME280;64229;52.246;21.054;2023-09-07T06:54:37;101643.63;;;17.38;93.69
30897;BME280;64229;52.246;21.054;2023-09-07T06:57:08;101642.75;;;17.47;93.33
30897;BME280;64229;52.246;21.054;2023-09-07T06:59:34;101645.13;;;17.59;92.89
30897;BME280;64229;52.246;21.054;2023-09-07T07:01:59;101644.00;;;17.70;92.79
30897;BME280;64229;52.246;21.054;2023-09-07T07:04:25;101643.94;;;17.80;92.22
30897;BME280;64229;52.246;21.054;2023-09-07T07:06:51;101641.47;;;17.89;92.01
30897;BME280;64229;52.246;21.054;2023-09-07T07:09:16;101652.72;;;18.01;91.68
30897;BME280;64229;52.246;21.054;2023-09-07T07:11:41;101650.47;;;18.13;91.19
30897;BME280;64229;52.246;21.054;2023-09-07T07:14:08;101653.09;;;18.24;90.88
30897;BME280;64229;52.246;21.054;2023-09-07T07:16:33;101653.00;;;18.34;90.19
30897;BME280;64229;52.246;21.054;2023-09-07T07:18:59;101659.41;;;18.43;89.97
30897;BME280;64229;52.246;21.054;2023-09-07T07:21:24;101654.47;;;18.50;89.40
30897;BME280;64229;52.246;21.054;2023-09-07T07:23:49;101661.69;;;18.60;89.09
30897;BME280;64229;52.246;21.054;2023-09-07T07:26:15;101668.13;;;18.69;88.53
30897;BME280;64229;52.246;21.054;2023-09-07T07:28:40;101652.88;;;18.78;88.11
30897;BME280;64229;52.246;21.054;2023-09-07T07:31:09;101660.59;;;18.90;88.06
30897;BME280;64229;52.246;21.054;2023-09-07T07:33:35;101663.72;;;19.02;87.70
30897;BME280;64229;52.246;21.054;2023-09-07T07:36:01;101667.09;;;19.13;87.22
30897;BME280;64229;52.246;21.054;2023-09-07T07:38:26;101655.19;;;19.14;86.76
30897;BME280;64229;52.246;21.054;2023-09-07T07:40:51;101668.47;;;19.34;86.09
30897;BME280;64229;52.246;21.054;2023-09-07T07:43:18;101672.16;;;19.43;85.42
30897;BME280;64229;52.246;21.054;2023-09-07T07:45:43;101665.78;;;19.58;84.93
30897;BME280;64229;52.246;21.054;2023-09-07T07:48:09;101666.69;;;19.67;84.87
30897;BME280;64229;52.246;21.054;2023-09-07T07:50:38;101674.34;;;19.84;84.07
30897;BME280;64229;52.246;21.054;2023-09-07T07:53:04;101679.25;;;20.01;83.81
30897;BME280;64229;52.246;21.054;2023-09-07T07:55:34;101671.38;;;20.18;82.97
30897;BME280;64229;52.246;21.054;2023-09-07T07:58:04;101682.19;;;20.37;82.50
30897;BME280;64229;52.246;21.054;2023-09-07T08:00:30;101679.47;;;20.56;81.39
30897;BME280;64229;52.246;21.054;2023-09-07T08:02:56;101688.91;;;20.72;80.98
30897;BME280;64229;52.246;21.054;2023-09-07T08:05:21;101682.44;;;20.87;80.17
30897;BME280;64229;52.246;21.054;2023-09-07T08:07:47;101687.34;;;20.98;79.74
30897;BME280;64229;52.246;21.054;2023-09-07T08:10:12;101676.69;;;21.02;79.15
30897;BME280;64229;52.246;21.054;2023-09-07T08:12:37;101680.31;;;21.11;79.11
30897;BME280;64229;52.246;21.054;2023-09-07T08:15:03;101691.78;;;21.22;78.98
30897;BME280;64229;52.246;21.054;2023-09-07T08:17:29;101685.06;;;21.33;78.62
30897;BME280;64229;52.246;21.054;2023-09-07T08:19:54;101686.47;;;21.44;78.47
30897;BME280;64229;52.246;21.054;2023-09-07T08:22:22;101683.72;;;21.58;78.03
30897;BME280;64229;52.246;21.054;2023-09-07T08:24:47;101654.84;;;21.62;77.45
30897;BME280;64229;52.246;21.054;2023-09-07T08:27:13;101678.38;;;22.03;76.24
30897;BME280;64229;52.246;21.054;2023-09-07T08:29:44;101679.09;;;22.62;74.82
30897;BME280;64229;52.246;21.054;2023-09-07T08:32:12;101683.88;;;23.18;72.82
30897;BME280;64229;52.246;21.054;2023-09-07T08:34:39;101684.31;;;23.77;71.30
30897;BME280;64229;52.246;21.054;2023-09-07T08:37:07;101684.91;;;24.43;68.91
30897;BME280;64229;52.246;21.054;2023-09-07T08:39:35;101682.63;;;25.09;65.92
30897;BME280;64229;52.246;21.054;2023-09-07T08:42:02;101683.31;;;25.57;63.40
30897;BME280;64229;52.246;21.054;2023-09-07T08:44:28;101690.53;;;25.82;62.54
30897;BME280;64229;52.246;21.054;2023-09-07T08:46:55;101692.44;;;26.03;60.99
30897;BME280;64229;52.246;21.054;2023-09-07T08:49:20;101684.28;;;26.15;60.01
30897;BME280;64229;52.246;21.054;2023-09-07T08:51:48;101682.25;;;26.12;59.17
30897;BME280;64229;52.246;21.054;2023-09-07T08:54:14;101683.59;;;26.06;60.38
30897;BME280;64229;52.246;21.054;2023-09-07T08:56:40;101681.16;;;26.04;60.29
30897;BME280;64229;52.246;21.054;2023-09-07T08:59:05;101683.50;;;26.47;58.74
30897;BME280;64229;52.246;21.054;2023-09-07T09:01:31;101673.44;;;27.09;57.46
30897;BME280;64229;52.246;21.054;2023-09-07T09:03:59;101675.84;;;27.75;55.47
30897;BME280;64229;52.246;21.054;2023-09-07T09:06:25;101679.78;;;28.30;53.68
30897;BME280;64229;52.246;21.054;2023-09-07T09:08:52;101672.38;;;28.78;51.26
30897;BME280;64229;52.246;21.054;2023-09-07T09:11:19;101671.75;;;29.16;49.93
30897;BME280;64229;52.246;21.054;2023-09-07T09:13:46;101676.91;;;29.53;49.65
30897;BME280;64229;52.246;21.054;2023-09-07T09:16:12;101677.72;;;29.92;48.16
30897;BME280;64229;52.246;21.054;2023-09-07T09:18:53;101674.59;;;30.32;46.89
30897;BME280;64229;52.246;21.054;2023-09-07T09:21:20;101667.00;;;30.71;45.10
30897;BME280;64229;52.246;21.054;2023-09-07T09:23:51;101635.13;;;30.97;44.22
30897;BME280;64229;52.246;21.054;2023-09-07T09:26:17;101669.78;;;31.51;44.25
30897;BME280;64229;52.246;21.054;2023-09-07T09:28:43;101671.81;;;31.87;42.69
30897;BME280;64229;52.246;21.054;2023-09-07T09:31:11;101667.78;;;32.15;41.66
30897;BME280;64229;52.246;21.054;2023-09-07T09:33:40;101668.94;;;32.47;40.91
30897;BME280;64229;52.246;21.054;2023-09-07T09:36:07;101667.53;;;32.71;39.41
30897;BME280;64229;52.246;21.054;2023-09-07T09:38:33;101673.84;;;32.72;38.92
30897;BME280;64229;52.246;21.054;2023-09-07T09:40:59;101662.03;;;32.75;39.03
30897;BME280;64229;52.246;21.054;2023-09-07T09:43:25;101671.22;;;32.83;38.75
30897;BME280;64229;52.246;21.054;2023-09-07T09:45:52;101664.03;;;32.78;38.51
30897;BME280;64229;52.246;21.054;2023-09-07T09:48:19;101669.53;;;32.74;38.73
30897;BME280;64229;52.246;21.054;2023-09-07T09:50:49;101665.47;;;32.58;38.74
30897;BME280;64229;52.246;21.054;2023-09-07T09:53:18;101662.94;;;32.42;38.16
30897;BME280;64229;52.246;21.054;2023-09-07T09:55:46;101665.28;;;31.69;39.74
30897;BME280;64229;52.246;21.054;2023-09-07T09:58:13;101649.16;;;31.15;40.49
30897;BME280;64229;52.246;21.054;2023-09-07T10:00:38;101657.41;;;31.15;41.27
30897;BME280;64229;52.246;21.054;2023-09-07T10:03:10;101658.50;;;31.06;41.45
30897;BME280;64229;52.246;21.054;2023-09-07T10:05:38;101660.19;;;31.15;40.84
30897;BME280;64229;52.246;21.054;2023-09-07T10:08:08;101653.41;;;30.82;41.96
30897;BME280;64229;52.246;21.054;2023-09-07T10:10:35;101657.16;;;30.70;42.43
30897;BME280;64229;52.246;21.054;2023-09-07T10:13:01;101664.53;;;30.43;42.22
30897;BME280;64229;52.246;21.054;2023-09-07T10:15:27;101661.03;;;30.23;42.70
30897;BME280;64229;52.246;21.054;2023-09-07T10:18:05;101660.91;;;29.97;42.58
30897;BME280;64229;52.246;21.054;2023-09-07T10:23:12;101651.94;;;29.61;43.79
30897;BME280;64229;52.246;21.054;2023-09-07T10:25:38;101655.41;;;29.23;43.79
30897;BME280;64229;52.246;21.054;2023-09-07T10:28:03;101646.88;;;28.93;44.36
30897;BME280;64229;52.246;21.054;2023-09-07T10:30:29;101657.22;;;28.84;44.57
30897;BME280;64229;52.246;21.054;2023-09-07T10:32:54;101661.91;;;28.68;44.92
30897;BME280;64229;52.246;21.054;2023-09-07T10:35:19;101656.03;;;28.38;45.42
30897;BME280;64229;52.246;21.054;2023-09-07T10:37:49;101653.69;;;28.08;46.88
30897;BME280;64229;52.246;21.054;2023-09-07T10:40:21;101657.94;;;27.78;47.37
30897;BME280;64229;52.246;21.054;2023-09-07T10:42:47;101651.44;;;27.58;47.34
30897;BME280;64229;52.246;21.054;2023-09-07T10:45:16;101654.91;;;27.43;47.50
30897;BME280;64229;52.246;21.054;2023-09-07T10:47:45;101655.94;;;27.38;47.39
30897;BME280;64229;52.246;21.054;2023-09-07T10:50:14;101654.00;;;27.38;47.45
30897;BME280;64229;52.246;21.054;2023-09-07T10:52:42;101647.47;;;27.43;47.98
30897;BME280;64229;52.246;21.054;2023-09-07T10:55:10;101642.06;;;27.59;47.55
30897;BME280;64229;52.246;21.054;2023-09-07T10:57:45;101644.25;;;27.65;47.04
30897;BME280;64229;52.246;21.054;2023-09-07T11:00:12;101643.13;;;27.66;47.11
30897;BME280;64229;52.246;21.054;2023-09-07T11:02:38;101640.38;;;27.66;46.96
30897;BME280;64229;52.246;21.054;2023-09-07T11:05:05;101642.41;;;27.70;47.15
30897;BME280;64229;52.246;21.054;2023-09-07T11:07:31;101647.53;;;27.71;47.20
30897;BME280;64229;52.246;21.054;2023-09-07T11:09:56;101643.66;;;27.72;46.31
30897;BME280;64229;52.246;21.054;2023-09-07T11:12:22;101645.81;;;27.79;45.71
30897;BME280;64229;52.246;21.054;2023-09-07T11:14:48;101641.47;;;27.78;45.66
30897;BME280;64229;52.246;21.054;2023-09-07T11:17:15;101644.09;;;27.74;45.35
30897;BME280;64229;52.246;21.054;2023-09-07T11:19:41;101646.03;;;27.74;45.46
30897;BME280;64229;52.246;21.054;2023-09-07T11:22:09;101636.31;;;27.64;45.85
30897;BME280;64229;52.246;21.054;2023-09-07T11:24:34;101633.19;;;27.50;46.44
30897;BME280;64229;52.246;21.054;2023-09-07T11:27:00;101636.53;;;27.31;46.37
30897;BME280;64229;52.246;21.054;2023-09-07T11:29:25;101627.22;;;27.07;46.71
30897;BME280;64229;52.246;21.054;2023-09-07T11:31:51;101636.31;;;26.87;46.82
30897;BME280;64229;52.246;21.054;2023-09-07T11:34:16;101616.25;;;26.59;47.09
30897;BME280;64229;52.246;21.054;2023-09-07T11:36:42;101630.25;;;26.57;46.85
30897;BME280;64229;52.246;21.054;2023-09-07T11:39:08;101627.50;;;26.57;46.23
30897;BME280;64229;52.246;21.054;2023-09-07T11:41:44;101626.50;;;26.62;45.52
30897;BME280;64229;52.246;21.054;2023-09-07T11:44:10;101610.88;;;26.50;46.14
30897;BME280;64229;52.246;21.054;2023-09-07T11:46:36;101624.47;;;26.25;46.66
30897;BME280;64229;52.246;21.054;2023-09-07T11:49:02;101612.88;;;26.29;46.47
30897;BME280;64229;52.246;21.054;2023-09-07T11:51:28;101622.84;;;26.58;46.33
30897;BME280;64229;52.246;21.054;2023-09-07T11:53:53;101623.22;;;26.80;45.71
30897;BME280;64229;52.246;21.054;2023-09-07T11:56:18;101622.16;;;26.97;45.62
30897;BME280;64229;52.246;21.054;2023-09-07T11:58:44;101617.75;;;27.05;43.50
30897;BME280;64229;52.246;21.054;2023-09-07T12:01:09;101613.25;;;27.00;43.66
30897;BME280;64229;52.246;21.054;2023-09-07T12:03:35;101611.47;;;27.04;43.85
30897;BME280;64229;52.246;21.054;2023-09-07T12:06:00;101613.84;;;27.06;43.82
30897;BME280;64229;52.246;21.054;2023-09-07T12:08:26;101617.97;;;27.12;43.43
30897;BME280;64229;52.246;21.054;2023-09-07T12:10:51;101616.22;;;27.20;42.99
30897;BME280;64229;52.246;21.054;2023-09-07T12:13:16;101619.09;;;27.23;42.31
30897;BME280;64229;52.246;21.054;2023-09-07T12:15:42;101614.75;;;27.22;42.43
30897;BME280;64229;52.246;21.054;2023-09-07T12:18:07;101623.44;;;27.24;42.40
30897;BME280;64229;52.246;21.054;2023-09-07T12:20:32;101614.75;;;27.22;41.95
30897;BME280;64229;52.246;21.054;2023-09-07T12:23:00;101613.81;;;27.30;41.95
30897;BME280;64229;52.246;21.054;2023-09-07T12:25:25;101613.94;;;27.34;41.62
30897;BME280;64229;52.246;21.054;2023-09-07T12:27:50;101610.13;;;27.38;42.41
30897;BME280;64229;52.246;21.054;2023-09-07T12:30:17;101610.59;;;27.41;41.30
30897;BME280;64229;52.246;21.054;2023-09-07T12:32:43;101612.84;;;27.51;41.08